sensor_id;sensor_type;location;lat;lon;timestamp;P1;durP1;ratioP1;P2;durP2;ratioP2
13868;SDS011;7004;48.206;16.402;2023-02-12T00:02:19;25.00;;;16.97;;
13868;SDS011;7004;48.206;16.402;2023-02-12T00:04:46;27.37;;;17.87;;
13868;SDS011;7004;48.206;16.402;2023-02-12T00:07:12;24.50;;;17.17;;
13868;SDS011;7004;48.206;16.402;2023-02-12T00:09:38;25.50;;;17.30;;
13868;SDS011;7004;48.206;16.402;2023-02-12T00:12:05;24.80;;;17.83;;
13868;SDS011;7004;48.206;16.402;2023-02-12T00:14:32;24.53;;;16.83;;
13868;SDS011;7004;48.206;16.402;2023-02-12T00:16:59;25.53;;;17.03;;
13868;SDS011;7004;48.206;16.402;2023-02-12T00:19:25;23.03;;;16.77;;
13868;SDS011;7004;48.206;16.402;2023-02-12T00:21:51;24.10;;;17.30;;
13868;SDS011;7004;48.206;16.402;2023-02-12T00:24:17;23.80;;;16.63;;
13868;SDS011;7004;48.206;16.402;2023-02-12T00:26:43;23.73;;;16.13;;
13868;SDS011;7004;48.206;16.402;2023-02-12T00:29:09;25.83;;;16.37;;
13868;SDS011;7004;48.206;16.402;2023-02-12T00:31:36;21.57;;;14.67;;
13868;SDS011;7004;48.206;16.402;2023-02-12T00:34:02;25.17;;;15.77;;
13868;SDS011;7004;48.206;16.402;2023-02-12T00:36:29;21.40;;;14.63;;
13868;SDS011;7004;48.206;16.402;2023-02-12T00:38:57;21.83;;;15.07;;
13868;SDS011;7004;48.206;16.402;2023-02-12T00:41:23;23.27;;;15.83;;
13868;SDS011;7004;48.206;16.402;2023-02-12T00:43:50;22.07;;;14.73;;
13868;SDS011;7004;48.206;16.402;2023-02-12T00:46:19;21.60;;;15.13;;
13868;SDS011;7004;48.206;16.402;2023-02-12T00:48:45;21.60;;;14.63;;
13868;SDS011;7004;48.206;16.402;2023-02-12T00:51:12;21.83;;;13.93;;
13868;SDS011;7004;48.206;16.402;2023-02-12T00:53:39;20.70;;;14.23;;
13868;SDS011;7004;48.206;16.402;2023-02-12T00:56:05;22.37;;;14.03;;
13868;SDS011;7004;48.206;16.402;2023-02-12T00:58:31;21.83;;;15.20;;
13868;SDS011;7004;48.206;16.402;2023-02-12T01:00:57;21.20;;;15.50;;
13868;SDS011;7004;48.206;16.402;2023-02-12T01:03:24;18.60;;;13.60;;
13868;SDS011;7004;48.206;16.402;2023-02-12T01:05:50;24.23;;;14.83;;
13868;SDS011;7004;48.206;16.402;2023-02-12T01:08:18;24.00;;;15.60;;
13868;SDS011;7004;48.206;16.402;2023-02-12T01:10:44;18.47;;;13.50;;
13868;SDS011;7004;48.206;16.402;2023-02-12T01:13:13;22.77;;;15.33;;
13868;SDS011;7004;48.206;16.402;2023-02-12T01:15:40;19.90;;;13.90;;
13868;SDS011;7004;48.206;16.402;2023-02-12T01:18:07;17.77;;;12.87;;
13868;SDS011;7004;48.206;16.402;2023-02-12T01:20:33;18.03;;;13.83;;
13868;SDS011;7004;48.206;16.402;2023-02-12T01:22:59;21.00;;;14.10;;
13868;SDS011;7004;48.206;16.402;2023-02-12T01:25:26;20.10;;;14.07;;
13868;SDS011;7004;48.206;16.402;2023-02-12T01:27:52;18.37;;;13.30;;
13868;SDS011;7004;48.206;16.402;2023-02-12T01:30:18;18.73;;;13.67;;
13868;SDS011;7004;48.206;16.402;2023-02-12T01:32:48;19.27;;;14.03;;
13868;SDS011;7004;48.206;16.402;2023-02-12T01:35:14;18.77;;;12.90;;
13868;SDS011;7004;48.206;16.402;2023-02-12T01:37:40;19.70;;;13.80;;
13868;SDS011;7004;48.206;16.402;2023-02-12T01:40:06;18.83;;;14.20;;
13868;SDS011;7004;48.206;16.402;2023-02-12T01:42:34;19.67;;;13.97;;
13868;SDS011;7004;48.206;16.402;2023-02-12T01:47:39;17.73;;;12.53;;
13868;SDS011;7004;48.206;16.402;2023-02-12T01:50:08;18.27;;;13.43;;
13868;SDS011;7004;48.206;16.402;2023-02-12T01:52:42;17.90;;;13.17;;
13868;SDS011;7004;48.206;16.402;2023-02-12T01:55:12;20.47;;;13.77;;
13868;SDS011;7004;48.206;16.402;2023-02-12T01:57:40;20.70;;;13.73;;
13868;SDS011;7004;48.206;16.402;2023-02-12T02:00:11;21.70;;;15.17;;
13868;SDS011;7004;48.206;16.402;2023-02-12T02:02:45;22.20;;;14.00;;
13868;SDS011;7004;48.206;16.402;2023-02-12T02:08:26;21.57;;;14.97;;
13868;SDS011;7004;48.206;16.402;2023-02-12T02:10:53;20.67;;;14.60;;
13868;SDS011;7004;48.206;16.402;2023-02-12T02:13:19;20.93;;;14.53;;
13868;SDS011;7004;48.206;16.402;2023-02-12T02:16:13;19.37;;;13.87;;
13868;SDS011;7004;48.206;16.402;2023-02-12T02:18:54;18.90;;;13.73;;
13868;SDS011;7004;48.206;16.402;2023-02-12T02:22:22;17.57;;;13.13;;
13868;SDS011;7004;48.206;16.402;2023-02-12T02:34:48;22.33;;;15.00;;
13868;SDS011;7004;48.206;16.402;2023-02-12T02:45:39;24.60;;;16.13;;
13868;SDS011;7004;48.206;16.402;2023-02-12T02:48:20;23.47;;;16.10;;
13868;SDS011;7004;48.206;16.402;2023-02-12T02:50:58;23.33;;;15.90;;
13868;SDS011;7004;48.206;16.402;2023-02-12T02:53:40;23.17;;;15.33;;
13868;SDS011;7004;48.206;16.402;2023-02-12T02:56:13;22.20;;;15.60;;
13868;SDS011;7004;48.206;16.402;2023-02-12T03:01:45;21.20;;;15.13;;
13868;SDS011;7004;48.206;16.402;2023-02-12T03:04:24;23.10;;;15.97;;
13868;SDS011;7004;48.206;16.402;2023-02-12T03:07:23;19.30;;;14.53;;
13868;SDS011;7004;48.206;16.402;2023-02-12T03:10:03;24.17;;;16.07;;
13868;SDS011;7004;48.206;16.402;2023-02-12T03:12:53;22.97;;;15.53;;
13868;SDS011;7004;48.206;16.402;2023-02-12T03:15:36;22.10;;;15.07;;
13868;SDS011;7004;48.206;16.402;2023-02-12T03:18:21;23.33;;;16.00;;
13868;SDS011;7004;48.206;16.402;2023-02-12T03:21:04;22.27;;;15.97;;
13868;SDS011;7004;48.206;16.402;2023-02-12T03:23:39;22.47;;;15.77;;
13868;SDS011;7004;48.206;16.402;2023-02-12T03:26:24;23.40;;;15.70;;
13868;SDS011;7004;48.206;16.402;2023-02-12T03:29:05;21.63;;;15.20;;
13868;SDS011;7004;48.206;16.402;2023-02-12T03:37:10;24.33;;;16.60;;
13868;SDS011;7004;48.206;16.402;2023-02-12T03:45:09;26.60;;;16.53;;
13868;SDS011;7004;48.206;16.402;2023-02-12T03:47:45;25.10;;;16.73;;
13868;SDS011;7004;48.206;16.402;2023-02-12T03:50:26;24.50;;;17.23;;
13868;SDS011;7004;48.206;16.402;2023-02-12T03:53:17;24.03;;;16.53;;
13868;SDS011;7004;48.206;16.402;2023-02-12T03:55:44;25.40;;;17.17;;
13868;SDS011;7004;48.206;16.402;2023-02-12T03:58:18;25.93;;;17.33;;
13868;SDS011;7004;48.206;16.402;2023-02-12T04:00:48;27.33;;;17.03;;
13868;SDS011;7004;48.206;16.402;2023-02-12T04:03:15;24.60;;;17.10;;
13868;SDS011;7004;48.206;16.402;2023-02-12T04:05:41;25.10;;;17.63;;
13868;SDS011;7004;48.206;16.402;2023-02-12T04:08:08;26.53;;;17.93;;
13868;SDS011;7004;48.206;16.402;2023-02-12T04:13:44;27.93;;;18.63;;
13868;SDS011;7004;48.206;16.402;2023-02-12T04:20:10;27.37;;;17.30;;
13868;SDS011;7004;48.206;16.402;2023-02-12T04:26:11;24.17;;;17.03;;
13868;SDS011;7004;48.206;16.402;2023-02-12T04:32:57;26.43;;;17.17;;
13868;SDS011;7004;48.206;16.402;2023-02-12T04:35:04;26.67;;;18.40;;
13868;SDS011;7004;48.206;16.402;2023-02-12T04:40:12;29.17;;;19.47;;
13868;SDS011;7004;48.206;16.402;2023-02-12T04:42:46;30.07;;;19.97;;
13868;SDS011;7004;48.206;16.402;2023-02-12T04:45:18;27.23;;;18.93;;
13868;SDS011;7004;48.206;16.402;2023-02-12T04:47:53;29.60;;;19.57;;
13868;SDS011;7004;48.206;16.402;2023-02-12T04:50:20;31.47;;;20.03;;
13868;SDS011;7004;48.206;16.402;2023-02-12T04:52:47;31.00;;;19.70;;
13868;SDS011;7004;48.206;16.402;2023-02-12T04:55:13;30.13;;;21.00;;
13868;SDS011;7004;48.206;16.402;2023-02-12T04:57:40;29.03;;;19.57;;
13868;SDS011;7004;48.206;16.402;2023-02-12T05:00:07;29.57;;;19.73;;
13868;SDS011;7004;48.206;16.402;2023-02-12T05:02:36;35.43;;;19.97;;
13868;SDS011;7004;48.206;16.402;2023-02-12T05:05:03;32.80;;;20.90;;
13868;SDS011;7004;48.206;16.402;2023-02-12T05:07:29;30.20;;;20.33;;
13868;SDS011;7004;48.206;16.402;2023-02-12T05:09:55;29.47;;;20.73;;
13868;SDS011;7004;48.206;16.402;2023-02-12T05:12:21;31.47;;;20.30;;
13868;SDS011;7004;48.206;16.402;2023-02-12T05:14:48;30.50;;;20.67;;
13868;SDS011;7004;48.206;16.402;2023-02-12T05:17:14;28.77;;;19.13;;
13868;SDS011;7004;48.206;16.402;2023-02-12T05:19:40;29.27;;;20.00;;
13868;SDS011;7004;48.206;16.402;2023-02-12T05:22:06;28.83;;;19.90;;
13868;SDS011;7004;48.206;16.402;2023-02-12T05:24:32;29.03;;;20.40;;
13868;SDS011;7004;48.206;16.402;2023-02-12T05:26:58;33.80;;;21.33;;
13868;SDS011;7004;48.206;16.402;2023-02-12T05:29:24;35.70;;;20.33;;
13868;SDS011;7004;48.206;16.402;2023-02-12T05:31:50;31.03;;;20.93;;
13868;SDS011;7004;48.206;16.402;2023-02-12T05:34:16;36.50;;;21.03;;
13868;SDS011;7004;48.206;16.402;2023-02-12T05:36:42;32.30;;;20.67;;
13868;SDS011;7004;48.206;16.402;2023-02-12T05:39:09;31.97;;;21.33;;
13868;SDS011;7004;48.206;16.402;2023-02-12T05:41:36;36.10;;;21.00;;
13868;SDS011;7004;48.206;16.402;2023-02-12T05:44:03;41.53;;;21.23;;
13868;SDS011;7004;48.206;16.402;2023-02-12T05:46:31;32.10;;;21.67;;
13868;SDS011;7004;48.206;16.402;2023-02-12T05:48:57;35.40;;;21.43;;
13868;SDS011;7004;48.206;16.402;2023-02-12T05:51:24;30.37;;;19.87;;
13868;SDS011;7004;48.206;16.402;2023-02-12T05:53:54;37.10;;;21.63;;
13868;SDS011;7004;48.206;16.402;2023-02-12T05:56:25;31.80;;;20.77;;
13868;SDS011;7004;48.206;16.402;2023-02-12T05:58:59;29.93;;;21.40;;
13868;SDS011;7004;48.206;16.402;2023-02-12T06:01:32;32.43;;;21.37;;
13868;SDS011;7004;48.206;16.402;2023-02-12T06:04:06;30.03;;;21.00;;
13868;SDS011;7004;48.206;16.402;2023-02-12T06:06:38;33.33;;;21.53;;
13868;SDS011;7004;48.206;16.402;2023-02-12T06:09:06;31.60;;;21.40;;
13868;SDS011;7004;48.206;16.402;2023-02-12T06:11:35;29.67;;;20.23;;
13868;SDS011;7004;48.206;16.402;2023-02-12T06:14:02;31.53;;;20.07;;
13868;SDS011;7004;48.206;16.402;2023-02-12T06:16:30;31.03;;;20.03;;
13868;SDS011;7004;48.206;16.402;2023-02-12T06:19:01;30.63;;;20.00;;
13868;SDS011;7004;48.206;16.402;2023-02-12T06:21:29;31.83;;;20.50;;
13868;SDS011;7004;48.206;16.402;2023-02-12T06:23:56;27.63;;;19.97;;
13868;SDS011;7004;48.206;16.402;2023-02-12T06:26:23;30.40;;;20.93;;
13868;SDS011;7004;48.206;16.402;2023-02-12T06:28:50;30.53;;;20.10;;
13868;SDS011;7004;48.206;16.402;2023-02-12T06:33:49;30.17;;;20.70;;
13868;SDS011;7004;48.206;16.402;2023-02-12T06:36:17;31.00;;;21.53;;
13868;SDS011;7004;48.206;16.402;2023-02-12T06:38:43;31.40;;;20.53;;
13868;SDS011;7004;48.206;16.402;2023-02-12T06:41:10;32.93;;;21.13;;
13868;SDS011;7004;48.206;16.402;2023-02-12T06:43:36;33.57;;;21.13;;
13868;SDS011;7004;48.206;16.402;2023-02-12T06:46:03;30.17;;;20.80;;
13868;SDS011;7004;48.206;16.402;2023-02-12T06:48:30;33.00;;;21.60;;
13868;SDS011;7004;48.206;16.402;2023-02-12T06:51:08;33.50;;;21.20;;
13868;SDS011;7004;48.206;16.402;2023-02-12T06:53:38;29.80;;;20.40;;
13868;SDS011;7004;48.206;16.402;2023-02-12T06:56:05;30.77;;;21.93;;
13868;SDS011;7004;48.206;16.402;2023-02-12T06:58:35;33.33;;;22.00;;
13868;SDS011;7004;48.206;16.402;2023-02-12T07:03:42;33.70;;;21.90;;
13868;SDS011;7004;48.206;16.402;2023-02-12T07:06:17;32.50;;;20.70;;
13868;SDS011;7004;48.206;16.402;2023-02-12T07:08:43;32.80;;;22.17;;
13868;SDS011;7004;48.206;16.402;2023-02-12T07:11:10;30.83;;;20.97;;
13868;SDS011;7004;48.206;16.402;2023-02-12T07:13:36;30.87;;;20.60;;
13868;SDS011;7004;48.206;16.402;2023-02-12T07:16:05;31.73;;;21.57;;
13868;SDS011;7004;48.206;16.402;2023-02-12T07:18:35;31.43;;;20.33;;
13868;SDS011;7004;48.206;16.402;2023-02-12T07:21:02;31.73;;;19.97;;
13868;SDS011;7004;48.206;16.402;2023-02-12T07:23:30;30.43;;;20.63;;
13868;SDS011;7004;48.206;16.402;2023-02-12T07:26:07;28.40;;;19.60;;
13868;SDS011;7004;48.206;16.402;2023-02-12T07:28:37;30.43;;;20.83;;
13868;SDS011;7004;48.206;16.402;2023-02-12T07:31:11;27.50;;;19.50;;
13868;SDS011;7004;48.206;16.402;2023-02-12T07:33:45;27.90;;;19.47;;
13868;SDS011;7004;48.206;16.402;2023-02-12T07:36:16;30.97;;;20.53;;
13868;SDS011;7004;48.206;16.402;2023-02-12T07:38:43;28.37;;;19.70;;
13868;SDS011;7004;48.206;16.402;2023-02-12T07:43:42;27.53;;;18.63;;
13868;SDS011;7004;48.206;16.402;2023-02-12T07:46:12;26.97;;;18.73;;
13868;SDS011;7004;48.206;16.402;2023-02-12T07:48:45;25.27;;;17.97;;
13868;SDS011;7004;48.206;16.402;2023-02-12T07:51:13;25.43;;;18.30;;
13868;SDS011;7004;48.206;16.402;2023-02-12T07:53:43;24.00;;;17.13;;
13868;SDS011;7004;48.206;16.402;2023-02-12T07:56:10;27.37;;;18.87;;
13868;SDS011;7004;48.206;16.402;2023-02-12T07:58:40;27.30;;;17.70;;
13868;SDS011;7004;48.206;16.402;2023-02-12T08:01:12;26.53;;;17.23;;
13868;SDS011;7004;48.206;16.402;2023-02-12T08:03:54;25.37;;;18.10;;
13868;SDS011;7004;48.206;16.402;2023-02-12T08:06:27;29.20;;;19.10;;
13868;SDS011;7004;48.206;16.402;2023-02-12T08:08:57;25.30;;;18.13;;
13868;SDS011;7004;48.206;16.402;2023-02-12T08:11:26;26.90;;;18.57;;
13868;SDS011;7004;48.206;16.402;2023-02-12T08:13:53;25.67;;;18.07;;
13868;SDS011;7004;48.206;16.402;2023-02-12T08:16:21;28.63;;;18.73;;
13868;SDS011;7004;48.206;16.402;2023-02-12T08:18:49;26.60;;;18.50;;
13868;SDS011;7004;48.206;16.402;2023-02-12T08:21:17;26.77;;;18.23;;
13868;SDS011;7004;48.206;16.402;2023-02-12T08:23:49;26.53;;;17.40;;
13868;SDS011;7004;48.206;16.402;2023-02-12T08:26:31;24.57;;;17.17;;
13868;SDS011;7004;48.206;16.402;2023-02-12T08:29:03;28.83;;;17.67;;
13868;SDS011;7004;48.206;16.402;2023-02-12T08:31:34;24.70;;;17.23;;
13868;SDS011;7004;48.206;16.402;2023-02-12T08:34:09;24.37;;;17.47;;
13868;SDS011;7004;48.206;16.402;2023-02-12T08:36:45;26.10;;;18.17;;
13868;SDS011;7004;48.206;16.402;2023-02-12T08:39:14;32.50;;;18.27;;
13868;SDS011;7004;48.206;16.402;2023-02-12T08:41:41;24.27;;;16.17;;
13868;SDS011;7004;48.206;16.402;2023-02-12T08:44:08;25.17;;;17.50;;
13868;SDS011;7004;48.206;16.402;2023-02-12T08:46:37;25.87;;;16.87;;
13868;SDS011;7004;48.206;16.402;2023-02-12T08:49:09;27.37;;;17.87;;
13868;SDS011;7004;48.206;16.402;2023-02-12T08:51:39;28.20;;;18.10;;
13868;SDS011;7004;48.206;16.402;2023-02-12T08:54:14;27.33;;;17.20;;
13868;SDS011;7004;48.206;16.402;2023-02-12T08:56:43;22.37;;;16.33;;
13868;SDS011;7004;48.206;16.402;2023-02-12T08:59:10;23.70;;;16.60;;
13868;SDS011;7004;48.206;16.402;2023-02-12T09:01:38;24.63;;;16.73;;
13868;SDS011;7004;48.206;16.402;2023-02-12T09:04:19;23.17;;;16.50;;
13868;SDS011;7004;48.206;16.402;2023-02-12T09:06:48;24.10;;;15.20;;
13868;SDS011;7004;48.206;16.402;2023-02-12T09:09:15;22.33;;;15.67;;
13868;SDS011;7004;48.206;16.402;2023-02-12T09:11:43;22.97;;;15.47;;
13868;SDS011;7004;48.206;16.402;2023-02-12T09:14:11;24.90;;;16.23;;
13868;SDS011;7004;48.206;16.402;2023-02-12T09:16:40;20.87;;;14.67;;
13868;SDS011;7004;48.206;16.402;2023-02-12T09:19:07;20.43;;;14.87;;
13868;SDS011;7004;48.206;16.402;2023-02-12T09:21:35;24.57;;;15.63;;
13868;SDS011;7004;48.206;16.402;2023-02-12T09:24:01;19.13;;;14.17;;
13868;SDS011;7004;48.206;16.402;2023-02-12T09:26:28;17.90;;;11.53;;
13868;SDS011;7004;48.206;16.402;2023-02-12T09:28:54;22.10;;;14.03;;
13868;SDS011;7004;48.206;16.402;2023-02-12T09:31:22;18.60;;;13.17;;
13868;SDS011;7004;48.206;16.402;2023-02-12T09:33:51;21.50;;;13.87;;
13868;SDS011;7004;48.206;16.402;2023-02-12T09:36:19;20.57;;;13.30;;
13868;SDS011;7004;48.206;16.402;2023-02-12T09:38:46;18.77;;;12.77;;
13868;SDS011;7004;48.206;16.402;2023-02-12T09:44:18;16.40;;;11.10;;
13868;SDS011;7004;48.206;16.402;2023-02-12T09:46:58;23.97;;;11.83;;
13868;SDS011;7004;48.206;16.402;2023-02-12T09:53:00;15.17;;;11.23;;
13868;SDS011;7004;48.206;16.402;2023-02-12T09:55:29;20.23;;;10.63;;
13868;SDS011;7004;48.206;16.402;2023-02-12T09:58:00;15.13;;;10.23;;
13868;SDS011;7004;48.206;16.402;2023-02-12T10:00:34;15.17;;;10.47;;
13868;SDS011;7004;48.206;16.402;2023-02-12T10:03:01;16.03;;;10.93;;
13868;SDS011;7004;48.206;16.402;2023-02-12T10:05:34;16.73;;;10.00;;
13868;SDS011;7004;48.206;16.402;2023-02-12T10:08:34;13.70;;;10.10;;
13868;SDS011;7004;48.206;16.402;2023-02-12T10:11:29;16.67;;;10.07;;
13868;SDS011;7004;48.206;16.402;2023-02-12T10:17:11;15.60;;;10.40;;
13868;SDS011;7004;48.206;16.402;2023-02-12T10:19:58;14.63;;;9.90;;
13868;SDS011;7004;48.206;16.402;2023-02-12T10:26:03;13.80;;;9.87;;
13868;SDS011;7004;48.206;16.402;2023-02-12T10:28:47;15.60;;;9.70;;
13868;SDS011;7004;48.206;16.402;2023-02-12T10:31:30;13.80;;;10.23;;
13868;SDS011;7004;48.206;16.402;2023-02-12T10:34:03;14.20;;;9.93;;
13868;SDS011;7004;48.206;16.402;2023-02-12T10:36:48;13.10;;;9.73;;
13868;SDS011;7004;48.206;16.402;2023-02-12T10:39:21;12.13;;;8.00;;
13868;SDS011;7004;48.206;16.402;2023-02-12T10:42:17;13.87;;;9.70;;
13868;SDS011;7004;48.206;16.402;2023-02-12T10:45:04;13.50;;;9.63;;
13868;SDS011;7004;48.206;16.402;2023-02-12T10:47:42;12.73;;;9.63;;
13868;SDS011;7004;48.206;16.402;2023-02-12T10:50:56;14.67;;;11.13;;
13868;SDS011;7004;48.206;16.402;2023-02-12T10:53:03;13.17;;;9.30;;
13868;SDS011;7004;48.206;16.402;2023-02-12T10:55:31;11.23;;;8.20;;
13868;SDS011;7004;48.206;16.402;2023-02-12T10:58:00;12.93;;;8.87;;
13868;SDS011;7004;48.206;16.402;2023-02-12T11:00:33;12.07;;;8.70;;
13868;SDS011;7004;48.206;16.402;2023-02-12T11:03:04;12.80;;;9.67;;
13868;SDS011;7004;48.206;16.402;2023-02-12T11:05:37;12.53;;;9.10;;
13868;SDS011;7004;48.206;16.402;2023-02-12T11:08:06;13.57;;;9.77;;
13868;SDS011;7004;48.206;16.402;2023-02-12T11:11:11;13.80;;;9.57;;
13868;SDS011;7004;48.206;16.402;2023-02-12T11:14:37;12.33;;;10.30;;
13868;SDS011;7004;48.206;16.402;2023-02-12T11:16:52;15.23;;;10.00;;
13868;SDS011;7004;48.206;16.402;2023-02-12T11:19:25;14.57;;;10.60;;
13868;SDS011;7004;48.206;16.402;2023-02-12T11:24:43;14.30;;;10.90;;
13868;SDS011;7004;48.206;16.402;2023-02-12T11:29:43;15.30;;;10.93;;
13868;SDS011;7004;48.206;16.402;2023-02-12T11:32:18;16.60;;;10.67;;
13868;SDS011;7004;48.206;16.402;2023-02-12T11:35:04;14.20;;;10.07;;
13868;SDS011;7004;48.206;16.402;2023-02-12T11:38:01;14.33;;;9.83;;
13868;SDS011;7004;48.206;16.402;2023-02-12T11:40:31;15.37;;;9.93;;
13868;SDS011;7004;48.206;16.402;2023-02-12T11:43:02;15.40;;;10.77;;
13868;SDS011;7004;48.206;16.402;2023-02-12T11:45:36;13.07;;;10.27;;
13868;SDS011;7004;48.206;16.402;2023-02-12T11:50:52;13.20;;;9.53;;
13868;SDS011;7004;48.206;16.402;2023-02-12T11:53:27;18.67;;;9.50;;
13868;SDS011;7004;48.206;16.402;2023-02-12T11:56:12;14.83;;;9.93;;
13868;SDS011;7004;48.206;16.402;2023-02-12T11:58:39;17.60;;;10.20;;
13868;SDS011;7004;48.206;16.402;2023-02-12T12:01:26;14.30;;;9.53;;
13868;SDS011;7004;48.206;16.402;2023-02-12T12:04:12;15.53;;;9.17;;
13868;SDS011;7004;48.206;16.402;2023-02-12T12:06:45;15.57;;;9.83;;
13868;SDS011;7004;48.206;16.402;2023-02-12T12:09:44;14.63;;;10.53;;
13868;SDS011;7004;48.206;16.402;2023-02-12T12:12:32;17.53;;;10.20;;
13868;SDS011;7004;48.206;16.402;2023-02-12T12:21:33;14.10;;;9.57;;
13868;SDS011;7004;48.206;16.402;2023-02-12T12:24:16;15.63;;;11.40;;
13868;SDS011;7004;48.206;16.402;2023-02-12T12:27:16;17.67;;;12.10;;
13868;SDS011;7004;48.206;16.402;2023-02-12T12:30:21;14.97;;;11.27;;
13868;SDS011;7004;48.206;16.402;2023-02-12T12:33:23;16.83;;;10.73;;
13868;SDS011;7004;48.206;16.402;2023-02-12T12:38:57;15.53;;;9.70;;
13868;SDS011;7004;48.206;16.402;2023-02-12T12:44:44;15.23;;;10.60;;
13868;SDS011;7004;48.206;16.402;2023-02-12T12:50:42;14.70;;;9.67;;
13868;SDS011;7004;48.206;16.402;2023-02-12T12:56:37;12.70;;;8.73;;
13868;SDS011;7004;48.206;16.402;2023-02-12T12:59:52;15.77;;;8.47;;
13868;SDS011;7004;48.206;16.402;2023-02-12T13:02:45;12.63;;;8.40;;
13868;SDS011;7004;48.206;16.402;2023-02-12T13:11:32;21.03;;;13.83;;
13868;SDS011;7004;48.206;16.402;2023-02-12T13:25:45;17.10;;;11.23;;
13868;SDS011;7004;48.206;16.402;2023-02-12T13:28:30;16.83;;;11.07;;
13868;SDS011;7004;48.206;16.402;2023-02-12T13:31:17;16.47;;;11.60;;
13868;SDS011;7004;48.206;16.402;2023-02-12T13:34:00;17.43;;;12.17;;
13868;SDS011;7004;48.206;16.402;2023-02-12T13:36:31;21.13;;;12.63;;
13868;SDS011;7004;48.206;16.402;2023-02-12T13:42:15;22.07;;;13.33;;
13868;SDS011;7004;48.206;16.402;2023-02-12T13:45:06;22.43;;;13.07;;
13868;SDS011;7004;48.206;16.402;2023-02-12T13:53:56;18.90;;;11.33;;
13868;SDS011;7004;48.206;16.402;2023-02-12T13:59:13;17.60;;;11.70;;
13868;SDS011;7004;48.206;16.402;2023-02-12T14:01:59;23.87;;;14.10;;
13868;SDS011;7004;48.206;16.402;2023-02-12T14:04:46;27.63;;;15.20;;
13868;SDS011;7004;48.206;16.402;2023-02-12T14:07:24;25.03;;;15.60;;
13868;SDS011;7004;48.206;16.402;2023-02-12T14:10:34;24.73;;;14.80;;
13868;SDS011;7004;48.206;16.402;2023-02-12T14:13:15;25.10;;;15.77;;
13868;SDS011;7004;48.206;16.402;2023-02-12T14:15:52;21.97;;;14.40;;
13868;SDS011;7004;48.206;16.402;2023-02-12T14:18:32;21.93;;;14.53;;
13868;SDS011;7004;48.206;16.402;2023-02-12T14:23:40;24.17;;;16.80;;
13868;SDS011;7004;48.206;16.402;2023-02-12T14:26:16;25.10;;;16.87;;
13868;SDS011;7004;48.206;16.402;2023-02-12T14:39:04;22.57;;;14.53;;
13868;SDS011;7004;48.206;16.402;2023-02-12T14:41:53;19.33;;;13.57;;
13868;SDS011;7004;48.206;16.402;2023-02-12T14:44:45;22.47;;;15.00;;
13868;SDS011;7004;48.206;16.402;2023-02-12T14:49:56;22.87;;;14.63;;
13868;SDS011;7004;48.206;16.402;2023-02-12T14:52:45;21.73;;;14.93;;
13868;SDS011;7004;48.206;16.402;2023-02-12T14:55:32;22.80;;;15.70;;
13868;SDS011;7004;48.206;16.402;2023-02-12T14:58:05;26.13;;;15.63;;
13868;SDS011;7004;48.206;16.402;2023-02-12T15:00:45;25.00;;;16.20;;
13868;SDS011;7004;48.206;16.402;2023-02-12T15:03:26;24.93;;;15.60;;
13868;SDS011;7004;48.206;16.402;2023-02-12T15:06:03;25.60;;;16.17;;
13868;SDS011;7004;48.206;16.402;2023-02-12T15:08:43;25.80;;;16.87;;
13868;SDS011;7004;48.206;16.402;2023-02-12T15:19:44;24.10;;;16.00;;
13868;SDS011;7004;48.206;16.402;2023-02-12T15:28:03;24.00;;;16.13;;
13868;SDS011;7004;48.206;16.402;2023-02-12T15:30:46;24.43;;;16.67;;
13868;SDS011;7004;48.206;16.402;2023-02-12T15:33:20;28.70;;;16.37;;
13868;SDS011;7004;48.206;16.402;2023-02-12T15:35:55;24.73;;;16.47;;
13868;SDS011;7004;48.206;16.402;2023-02-12T15:38:29;27.00;;;17.67;;
13868;SDS011;7004;48.206;16.402;2023-02-12T15:41:08;29.43;;;17.70;;
13868;SDS011;7004;48.206;16.402;2023-02-12T15:44:17;23.97;;;16.67;;
13868;SDS011;7004;48.206;16.402;2023-02-12T15:47:10;23.43;;;15.57;;
13868;SDS011;7004;48.206;16.402;2023-02-12T15:49:40;24.00;;;15.10;;
13868;SDS011;7004;48.206;16.402;2023-02-12T15:52:16;23.20;;;15.80;;
13868;SDS011;7004;48.206;16.402;2023-02-12T15:54:58;25.03;;;16.43;;
13868;SDS011;7004;48.206;16.402;2023-02-12T15:57:29;27.27;;;17.63;;
13868;SDS011;7004;48.206;16.402;2023-02-12T15:59:59;27.47;;;17.03;;
13868;SDS011;7004;48.206;16.402;2023-02-12T16:02:33;25.40;;;16.30;;
13868;SDS011;7004;48.206;16.402;2023-02-12T16:05:01;27.33;;;17.33;;
13868;SDS011;7004;48.206;16.402;2023-02-12T16:07:33;29.23;;;17.20;;
13868;SDS011;7004;48.206;16.402;2023-02-12T16:10:04;25.73;;;16.60;;
13868;SDS011;7004;48.206;16.402;2023-02-12T16:12:38;25.10;;;16.67;;
13868;SDS011;7004;48.206;16.402;2023-02-12T16:15:05;22.43;;;15.93;;
13868;SDS011;7004;48.206;16.402;2023-02-12T16:17:59;29.40;;;16.73;;
13868;SDS011;7004;48.206;16.402;2023-02-12T16:20:31;28.33;;;17.40;;
13868;SDS011;7004;48.206;16.402;2023-02-12T16:23:03;24.50;;;17.70;;
13868;SDS011;7004;48.206;16.402;2023-02-12T16:25:31;26.23;;;17.77;;
13868;SDS011;7004;48.206;16.402;2023-02-12T16:28:03;30.47;;;15.77;;
13868;SDS011;7004;48.206;16.402;2023-02-12T16:30:40;38.87;;;19.27;;
13868;SDS011;7004;48.206;16.402;2023-02-12T16:33:52;24.40;;;16.97;;
13868;SDS011;7004;48.206;16.402;2023-02-12T16:38:50;23.33;;;16.23;;
13868;SDS011;7004;48.206;16.402;2023-02-12T16:41:33;27.27;;;17.07;;
13868;SDS011;7004;48.206;16.402;2023-02-12T16:44:34;24.47;;;16.37;;
13868;SDS011;7004;48.206;16.402;2023-02-12T16:47:02;28.33;;;16.97;;
13868;SDS011;7004;48.206;16.402;2023-02-12T16:49:29;27.80;;;16.17;;
13868;SDS011;7004;48.206;16.402;2023-02-12T16:55:05;27.93;;;16.90;;
13868;SDS011;7004;48.206;16.402;2023-02-12T16:57:42;24.60;;;15.03;;
13868;SDS011;7004;48.206;16.402;2023-02-12T17:00:11;22.83;;;15.60;;
13868;SDS011;7004;48.206;16.402;2023-02-12T17:02:42;23.57;;;15.77;;
13868;SDS011;7004;48.206;16.402;2023-02-12T17:05:11;23.40;;;15.17;;
13868;SDS011;7004;48.206;16.402;2023-02-12T17:07:42;22.43;;;14.73;;
13868;SDS011;7004;48.206;16.402;2023-02-12T17:10:13;24.37;;;15.20;;
13868;SDS011;7004;48.206;16.402;2023-02-12T17:12:48;21.53;;;15.63;;
13868;SDS011;7004;48.206;16.402;2023-02-12T17:15:18;25.63;;;16.37;;
13868;SDS011;7004;48.206;16.402;2023-02-12T17:17:55;25.50;;;16.33;;
13868;SDS011;7004;48.206;16.402;2023-02-12T17:20:21;26.00;;;16.73;;
13868;SDS011;7004;48.206;16.402;2023-02-12T17:22:52;24.47;;;16.47;;
13868;SDS011;7004;48.206;16.402;2023-02-12T17:25:21;28.37;;;17.50;;
13868;SDS011;7004;48.206;16.402;2023-02-12T17:27:48;26.07;;;17.00;;
13868;SDS011;7004;48.206;16.402;2023-02-12T17:30:17;26.97;;;17.03;;
13868;SDS011;7004;48.206;16.402;2023-02-12T17:32:48;26.67;;;17.77;;
13868;SDS011;7004;48.206;16.402;2023-02-12T17:35:18;29.03;;;17.30;;
13868;SDS011;7004;48.206;16.402;2023-02-12T17:37:45;24.10;;;16.60;;
13868;SDS011;7004;48.206;16.402;2023-02-12T17:40:14;30.97;;;18.83;;
13868;SDS011;7004;48.206;16.402;2023-02-12T17:42:42;28.20;;;17.50;;
13868;SDS011;7004;48.206;16.402;2023-02-12T17:45:09;27.67;;;18.10;;
13868;SDS011;7004;48.206;16.402;2023-02-12T17:47:36;33.17;;;18.40;;
13868;SDS011;7004;48.206;16.402;2023-02-12T17:50:06;28.17;;;17.23;;